Pagrindinis puslapis
METAR-TAF:

METAR-TAF

Oro uostai :

Fasa, Iranas

platuma: 28-58N, ilguma: 053-41E, Aukštis: 1383 m

Dabartinis oras

Ataskaita buvo paskelbta 38 minutes, ne 14:00 UTC
Vėjas 14 kt iš Pietų/Pietvakarių
Temperatūra 34°C
Drėgmė 12%
Slėgis 1012 hPa
Matomumas 10 km arba daugiau
Mažai debesys ne aukštis 4000 ft

METAR: OISF 191400Z 21014KT 9999 FEW040 34/01 Q1012 A2989

Laikas: 19:08 (14:38 UTC)


TAF: trūkstamas

Orai ataskaitas ir orų prognozės (METAR, TAF).

turimą stotys yra geltonos ir raudonos taškus žemėlapyje.

Perkelti pele per norėdami pamatyti stoties vardą.

Tada spustelėkite, norėdami matyti oro stebėjimo ir prognozės.

Norėdami pakeisti žemėlapį: spustelėkite ant žalios mygtukų su juodo kryžiaus žemyn,; žalią mygtuką su brūkšneliu, jei norite nutolinti; arba žalių rodyklių gretimoms žemėlapius.


METAR-TAF: